Time;durP1;ratioP1;P1;durP2;ratioP2;P2;SDS_P1;SDS_P2;PMS_P1;PMS_P2;Temp;Humidity;BMP_temperature;BMP_pressure;BME280_temperature;BME280_humidity;BME280_pressure;Samples;Min_cycle;Max_cycle;Signal;HPM_P1;HPM_P2
2021/12/12 00:00:43;;;;;;;31.25;19.13;;;;;;;3.52;64.38;101408.75;5083343;28;20430;-62
2021/12/12 00:03:20;;;;;;;30.33;18.58;;;;;;;3.57;64.33;101406.94;5092275;28;20051;-62
2021/12/12 00:05:54;;;;;;;30.88;18.70;;;;;;;3.57;64.49;101409.53;5072312;28;20139;-62
2021/12/12 00:08:23;;;;;;;31.98;18.50;;;;;;;3.51;64.61;101430.41;5072084;28;20052;-63
2021/12/12 00:10:58;;;;;;;28.85;18.02;;;;;;;3.40;64.53;101422.81;5076003;28;20064;-63
2021/12/12 00:13:30;;;;;;;27.92;16.33;;;;;;;3.31;64.98;101419.47;5072388;28;20049;-64
2021/12/12 00:15:57;;;;;;;24.52;14.82;;;;;;;3.35;64.66;101426.31;5072217;28;20044;-62
2021/12/12 00:18:23;;;;;;;26.58;15.07;;;;;;;3.33;64.45;101418.56;5078283;28;20534;-62
2021/12/12 00:20:52;;;;;;;25.27;15.77;;;;;;;3.35;64.38;101429.78;5092204;28;20052;-62
2021/12/12 00:23:19;;;;;;;26.92;14.88;;;;;;;3.27;64.54;101434.22;5092472;28;20044;-62
2021/12/12 00:25:50;;;;;;;23.20;14.73;;;;;;;3.33;64.12;101439.31;5092409;28;20408;-62
2021/12/12 00:28:19;;;;;;;22.15;14.77;;;;;;;3.26;64.24;101425.59;5091174;28;20056;-62
2021/12/12 00:30:52;;;;;;;24.88;15.50;;;;;;;3.28;63.94;101425.56;5092152;28;20040;-63
2021/12/12 00:33:20;;;;;;;24.88;14.65;;;;;;;3.27;63.95;101431.63;5092411;28;20044;-62
2021/12/12 00:35:49;;;;;;;21.48;14.55;;;;;;;3.22;63.91;101443.81;5092178;28;20074;-63
2021/12/12 00:38:24;;;;;;;24.98;14.52;;;;;;;3.17;64.03;101435.25;5092345;28;20105;-62
2021/12/12 00:40:54;;;;;;;21.88;14.68;;;;;;;3.15;63.84;101437.00;5092029;28;20080;-62
2021/12/12 00:43:28;;;;;;;23.70;14.95;;;;;;;3.12;63.66;101430.13;5091510;28;20048;-62
2021/12/12 00:45:58;;;;;;;23.17;14.10;;;;;;;3.18;63.47;101437.81;5071855;28;20049;-62
2021/12/12 00:48:27;;;;;;;23.52;14.30;;;;;;;3.14;63.53;101450.88;5071855;28;20074;-62
2021/12/12 00:50:56;;;;;;;24.45;15.30;;;;;;;3.11;63.56;101454.31;5071917;28;20102;-63
2021/12/12 00:53:23;;;;;;;24.23;14.48;;;;;;;3.09;63.58;101443.97;5071958;28;20048;-62
2021/12/12 00:55:53;;;;;;;30.08;14.90;;;;;;;3.09;63.47;101436.22;5071842;28;20044;-63
2021/12/12 00:58:20;;;;;;;24.63;14.50;;;;;;;3.13;63.28;101454.34;5072010;28;20074;-62
2021/12/12 01:01:21;;;;;;;31.15;16.48;;;;;;;3.12;63.50;101461.22;5071534;28;20056;-62
2021/12/12 01:04:11;;;;;;;27.75;16.77;;;;;;;3.15;63.45;101445.66;5063048;28;20139;-63
2021/12/12 01:06:39;;;;;;;27.83;16.60;;;;;;;3.13;63.60;101434.44;5071849;28;20067;-62
2021/12/12 01:09:13;;;;;;;27.63;16.13;;;;;;;3.16;63.54;101439.59;5071663;28;20052;-62
2021/12/12 01:11:44;;;;;;;30.20;17.40;;;;;;;3.15;63.72;101458.63;5075082;28;20052;-62
2021/12/12 01:14:15;;;;;;;28.33;17.35;;;;;;;3.15;64.06;101460.34;5075506;28;20051;-62
2021/12/12 01:17:14;;;;;;;22.45;14.48;;;;;;;3.02;64.09;101464.84;5075028;28;20040;-62
2021/12/12 01:19:50;;;;;;;22.33;14.50;;;;;;;3.03;64.04;101459.63;5073944;28;20048;-62
2021/12/12 01:22:22;;;;;;;;;;;;;;;3.04;63.81;101458.75;5075692;28;20052;-63
2021/12/12 01:24:51;;;;;;;23.05;14.30;;;;;;;3.06;63.59;101458.72;5075162;28;19924;-62
2021/12/12 01:27:19;;;;;;;26.48;15.32;;;;;;;3.00;63.82;101466.63;5075398;28;20102;-62
2021/12/12 01:29:47;;;;;;;24.30;14.68;;;;;;;2.99;63.74;101465.75;5075126;28;20056;-63
2021/12/12 01:32:23;;;;;;;25.50;15.25;;;;;;;2.96;63.83;101464.91;5075260;28;20048;-62
2021/12/12 01:34:51;;;;;;;20.27;13.70;;;;;;;2.87;63.95;101484.91;5074396;28;20415;-62
2021/12/12 01:37:36;;;;;;;22.98;15.20;;;;;;;2.81;63.77;101508.31;5075167;28;20475;-62
2021/12/12 01:40:17;;;;;;;21.00;14.43;;;;;;;2.78;63.80;101501.44;5075026;28;20053;-62
2021/12/12 01:42:48;;;;;;;26.52;15.02;;;;;;;2.77;63.55;101506.63;5074890;28;20071;-62
2021/12/12 01:45:37;;;;;;;22.67;14.30;;;;;;;2.76;63.40;101508.34;5074963;28;20044;-63
2021/12/12 01:48:16;;;;;;;22.23;14.20;;;;;;;2.74;63.36;101499.75;5074763;28;20485;-63
2021/12/12 01:50:49;;;;;;;22.85;14.38;;;;;;;2.74;63.45;101499.75;5074375;28;20094;-62
2021/12/12 01:53:25;;;;;;;24.52;13.48;;;;;;;2.71;63.31;101497.19;5074774;28;20496;-62
2021/12/12 01:56:08;;;;;;;21.00;14.00;;;;;;;2.65;63.29;101497.25;5074681;28;20056;-62
2021/12/12 01:58:38;;;;;;;23.55;13.73;;;;;;;2.66;63.09;101511.94;5074778;28;20048;-62
2021/12/12 02:01:15;;;;;;;23.10;14.57;;;;;;;2.57;63.64;101505.13;5074522;28;20049;-62
2021/12/12 02:03:49;;;;;;;19.73;14.00;;;;;;;2.63;63.15;101519.75;5074644;28;20448;-64
2021/12/12 02:06:21;;;;;;;21.67;14.25;;;;;;;2.68;63.22;101517.09;5088614;28;20052;-64
2021/12/12 02:08:51;;;;;;;23.27;14.02;;;;;;;2.67;63.09;101520.59;5094868;28;20044;-62
2021/12/12 02:11:21;;;;;;;29.00;13.70;;;;;;;2.61;63.10;101516.31;5094698;28;20401;-62
2021/12/12 02:13:53;;;;;;;27.20;15.25;;;;;;;2.63;63.03;101516.28;5094739;28;20407;-62
2021/12/12 02:16:22;;;;;;;22.13;13.75;;;;;;;2.62;62.96;101528.41;5094873;28;20044;-62
2021/12/12 02:18:52;;;;;;;24.65;14.18;;;;;;;2.64;63.03;101520.59;5094408;28;20507;-62
2021/12/12 02:21:27;;;;;;;20.63;14.25;;;;;;;2.63;62.91;101509.38;5094069;28;20074;-63
2021/12/12 02:37:42;;;;;;;22.45;14.25;;;;;;;2.63;63.30;101521.47;5094296;28;20071;-62
2021/12/12 02:40:18;;;;;;;24.95;15.57;;;;;;;2.64;63.15;101511.13;5085477;28;20557;-63
2021/12/12 02:42:45;;;;;;;;;;;;;;;2.47;63.35;101515.63;5074232;28;20052;-64
2021/12/12 02:45:15;;;;;;;25.35;15.80;;;;;;;2.48;63.57;101514.75;5073716;28;19920;-63
2021/12/12 02:47:43;;;;;;;22.98;14.55;;;;;;;2.50;63.50;101512.97;5073772;28;20049;-63
2021/12/12 02:50:15;;;;;;;24.48;15.20;;;;;;;2.49;63.31;101527.69;5073516;28;20048;-63
2021/12/12 02:52:49;;;;;;;26.20;14.95;;;;;;;2.44;63.41;101525.13;5073627;28;20044;-62
2021/12/12 02:55:22;;;;;;;23.98;15.25;;;;;;;2.49;63.31;101537.16;5073591;28;20044;-63
2021/12/12 02:57:51;;;;;;;25.60;14.45;;;;;;;2.53;63.00;101538.88;5072778;28;20044;-63
2021/12/12 03:00:21;;;;;;;25.67;15.10;;;;;;;2.50;63.26;101550.13;5073404;28;20048;-64
2021/12/12 03:02:49;;;;;;;24.38;14.80;;;;;;;2.49;63.57;101557.88;5073305;28;20059;-66
2021/12/12 03:05:21;;;;;;;22.35;14.45;;;;;;;2.51;63.60;101556.16;5073350;28;20603;-62
2021/12/12 03:07:48;;;;;;;23.08;14.32;;;;;;;2.60;63.21;101556.03;5073239;28;20052;-62
2021/12/12 03:10:21;;;;;;;23.58;14.65;;;;;;;2.60;63.54;101561.22;5073102;28;20052;-63
2021/12/12 03:12:48;;;;;;;20.75;13.48;;;;;;;2.61;63.77;101571.56;5084455;28;20047;-62
2021/12/12 03:15:19;;;;;;;28.90;15.25;;;;;;;2.61;63.83;101561.19;5093703;28;20503;-62
2021/12/12 03:17:48;;;;;;;21.48;14.02;;;;;;;2.68;63.55;101567.19;5092611;28;20112;-62
2021/12/12 03:20:25;;;;;;;22.35;14.52;;;;;;;2.66;64.00;101568.94;5093167;28;20108;-65
2021/12/12 03:23:00;;;;;;;22.63;13.95;;;;;;;2.63;64.09;101570.69;5092444;28;20508;-64
2021/12/12 03:25:30;;;;;;;21.98;13.88;;;;;;;2.64;64.28;101568.13;5093371;28;20067;-64
2021/12/12 03:27:57;;;;;;;22.02;13.77;;;;;;;2.68;64.10;101554.25;5081112;28;20492;-66
2021/12/12 03:30:24;;;;;;;24.83;14.85;;;;;;;2.74;64.19;101566.25;5073104;28;20044;-61
2021/12/12 03:32:50;;;;;;;22.63;14.30;;;;;;;2.70;64.26;101582.72;5071944;28;20049;-63
2021/12/12 03:35:17;;;;;;;24.38;14.45;;;;;;;2.59;64.71;101580.22;5072898;28;20048;-62
2021/12/12 03:37:44;;;;;;;19.55;13.45;;;;;;;2.63;64.50;101578.47;5072844;28;20045;-62
2021/12/12 03:40:20;;;;;;;21.92;13.55;;;;;;;2.58;64.48;101588.91;5072754;28;20048;-63
2021/12/12 03:42:52;;;;;;;24.73;13.88;;;;;;;2.50;64.81;101599.34;5072647;28;20162;-63
2021/12/12 03:45:20;;;;;;;25.63;13.48;;;;;;;2.52;64.61;101587.22;5072199;28;20409;-63
2021/12/12 03:47:55;;;;;;;21.98;14.18;;;;;;;2.57;64.38;101603.56;5072553;28;20056;-62
2021/12/12 03:50:31;;;;;;;21.38;13.25;;;;;;;2.55;64.67;101607.06;5072698;28;20052;-62
2021/12/12 03:52:58;;;;;;;22.88;13.32;;;;;;;2.54;64.77;101607.91;5072560;28;20410;-62
2021/12/12 03:55:27;;;;;;;22.05;14.07;;;;;;;2.65;64.56;101610.44;5072478;28;20048;-63
2021/12/12 03:57:54;;;;;;;23.08;14.60;;;;;;;2.66;64.47;101601.78;5072421;28;20045;-63
2021/12/12 04:00:26;;;;;;;22.58;14.15;;;;;;;2.68;64.76;101603.47;5071751;28;20052;-62
2021/12/12 04:02:54;;;;;;;21.85;13.82;;;;;;;2.63;64.85;101599.19;5075035;28;20484;-62
2021/12/12 04:05:21;;;;;;;22.48;13.82;;;;;;;2.56;64.88;101601.84;5088396;28;20098;-64
2021/12/12 04:07:49;;;;;;;23.45;14.10;;;;;;;2.55;65.00;101592.38;5089178;28;20052;-63
2021/12/12 04:10:19;;;;;;;21.98;13.48;;;;;;;2.53;65.04;101588.94;5088966;28;20048;-63
2021/12/12 04:12:48;;;;;;;21.42;13.80;;;;;;;2.49;65.15;101589.84;5089177;28;20048;-62
2021/12/12 04:15:16;;;;;;;22.33;13.77;;;;;;;2.57;64.97;101597.53;5089287;28;20451;-63
2021/12/12 04:17:44;;;;;;;20.42;13.60;;;;;;;2.62;64.85;101600.94;5088969;28;20048;-63
2021/12/12 04:20:17;;;;;;;23.65;13.57;;;;;;;2.57;65.05;101607.91;5087521;28;20050;-63
2021/12/12 04:22:44;;;;;;;20.40;13.75;;;;;;;2.53;64.98;101625.22;5089277;28;20097;-63
2021/12/12 04:25:12;;;;;;;22.02;13.32;;;;;;;2.55;64.99;101631.25;5088829;28;20048;-62
2021/12/12 04:27:38;;;;;;;22.85;14.25;;;;;;;2.53;65.02;101637.31;5089162;28;20052;-62
2021/12/12 04:30:09;;;;;;;21.52;13.30;;;;;;;2.53;65.02;101642.50;5088880;28;20044;-62
2021/12/12 04:32:35;;;;;;;25.23;12.60;;;;;;;2.40;65.14;101641.72;5088949;28;20048;-63
2021/12/12 04:35:25;;;;;;;24.15;14.27;;;;;;;2.26;65.25;101641.81;5085803;28;20048;-62
2021/12/12 04:37:54;;;;;;;19.55;12.02;;;;;;;2.27;65.14;101649.59;5068615;28;20052;-62
2021/12/12 04:40:24;;;;;;;20.13;12.63;;;;;;;2.27;64.98;101651.31;5068734;28;20101;-62
2021/12/12 04:42:53;;;;;;;21.88;13.75;;;;;;;2.27;64.81;101647.00;5068862;28;20071;-63
2021/12/12 04:45:50;;;;;;;19.08;11.82;;;;;;;2.25;64.70;101660.84;5072128;28;20466;-63
2021/12/12 04:51:20;;;;;;;21.63;13.50;;;;;;;2.22;64.64;101658.25;5077549;28;20047;-63
2021/12/12 04:54:24;;;;;;;18.75;12.32;;;;;;;2.24;64.42;101654.78;5092889;28;20286;-63
2021/12/12 04:57:06;;;;;;;25.17;12.75;;;;;;;2.31;64.14;101672.88;5092771;28;20067;-62
2021/12/12 04:59:48;;;;;;;22.50;12.57;;;;;;;2.28;64.43;101674.59;5092792;28;20381;-62
2021/12/12 05:02:24;;;;;;;21.85;11.60;;;;;;;2.24;64.50;101680.69;5092601;28;20052;-62
2021/12/12 05:05:09;;;;;;;20.10;12.98;;;;;;;2.19;64.55;101700.56;5092623;28;20048;-63
2021/12/12 05:07:45;;;;;;;19.80;12.10;;;;;;;2.10;64.46;101700.63;5079209;28;20048;-63
2021/12/12 05:10:49;;;;;;;22.00;12.82;;;;;;;2.17;64.06;101719.56;5072056;28;20519;-62
2021/12/12 05:13:21;;;;;;;20.70;12.35;;;;;;;2.11;64.03;101723.94;5057136;28;20541;-63
2021/12/12 05:15:51;;;;;;;19.15;11.70;;;;;;;2.10;64.12;101722.19;5072061;28;20117;-63
2021/12/12 05:18:29;;;;;;;16.20;10.55;;;;;;;2.10;64.08;101731.72;5072103;28;20048;-62
2021/12/12 05:21:09;;;;;;;17.90;10.88;;;;;;;2.08;64.11;101730.84;5071940;28;20048;-63
2021/12/12 05:23:40;;;;;;;17.48;10.95;;;;;;;2.04;64.24;101735.16;5080822;28;20443;-63
2021/12/12 05:26:12;;;;;;;18.92;11.57;;;;;;;2.02;64.33;101730.88;5092500;28;20491;-63
2021/12/12 05:28:48;;;;;;;17.90;11.73;;;;;;;1.97;64.34;101730.91;5092194;28;20127;-63
2021/12/12 05:31:16;;;;;;;;;;;;;;;1.93;64.24;101736.94;5092710;28;20051;-63
2021/12/12 05:33:45;;;;;;;17.30;10.65;;;;;;;1.98;64.04;101742.13;5092084;28;19919;-63
2021/12/12 05:36:13;;;;;;;19.13;11.07;;;;;;;2.02;63.96;101738.63;5091984;28;20404;-63
2021/12/12 05:38:40;;;;;;;18.15;11.30;;;;;;;2.00;63.91;101743.81;5088177;28;20044;-63
2021/12/12 05:41:08;;;;;;;16.52;11.15;;;;;;;1.98;64.03;101743.00;5071475;28;20394;-62
2021/12/12 05:43:35;;;;;;;16.95;11.43;;;;;;;2.04;63.97;101747.28;5071912;28;20052;-63
2021/12/12 05:46:04;;;;;;;17.77;11.02;;;;;;;2.04;63.97;101742.09;5071512;28;20063;-62
2021/12/12 05:48:31;;;;;;;17.50;11.52;;;;;;;2.06;63.87;101745.53;5071816;28;20056;-62
2021/12/12 05:51:00;;;;;;;18.23;11.57;;;;;;;2.10;63.83;101742.91;5071610;28;20063;-63
2021/12/12 05:53:26;;;;;;;18.75;12.20;;;;;;;2.07;64.04;101737.75;5071554;28;20451;-63
2021/12/12 05:55:53;;;;;;;18.23;12.82;;;;;;;2.09;64.12;101741.19;5070506;28;20053;-63
2021/12/12 05:58:22;;;;;;;16.98;12.43;;;;;;;2.10;64.32;101739.47;5070971;28;20055;-63
2021/12/12 06:00:55;;;;;;;19.15;11.93;;;;;;;2.10;64.23;101750.69;5071189;28;20094;-62
2021/12/12 06:03:27;;;;;;;31.92;17.98;;;;;;;2.15;64.31;101758.44;5071314;28;20048;-63
2021/12/12 06:06:05;;;;;;;57.67;30.75;;;;;;;2.13;64.43;101757.56;5071407;28;20068;-67
2021/12/12 06:08:44;;;;;;;30.85;17.05;;;;;;;2.19;64.58;101767.06;5071003;28;20139;-62
2021/12/12 06:11:21;;;;;;;22.58;13.10;;;;;;;2.23;64.23;101763.56;5070770;28;20055;-63
2021/12/12 06:13:48;;;;;;;21.40;12.60;;;;;;;2.23;64.26;101771.34;5070490;28;20048;-63
2021/12/12 06:16:19;;;;;;;21.92;13.68;;;;;;;2.18;64.65;101779.13;5071172;28;20044;-63
2021/12/12 06:18:55;;;;;;;17.65;13.07;;;;;;;2.15;64.89;101781.75;5071073;28;20122;-63
2021/12/12 06:21:22;;;;;;;18.52;13.10;;;;;;;2.14;64.95;101797.28;5071004;28;20075;-64
2021/12/12 06:23:49;;;;;;;22.08;14.55;;;;;;;1.92;65.26;101802.56;5070842;28;20052;-63
2021/12/12 06:26:19;;;;;;;22.05;13.43;;;;;;;1.95;64.99;101813.72;5070943;28;20044;-63
2021/12/12 06:28:48;;;;;;;19.42;12.40;;;;;;;1.95;64.76;101807.69;5070473;28;20386;-63
2021/12/12 06:31:15;;;;;;;17.35;11.35;;;;;;;1.95;64.65;101805.13;5070701;28;20045;-63
2021/12/12 06:33:42;;;;;;;18.30;11.93;;;;;;;1.92;64.67;101810.31;5070678;28;20052;-67
2021/12/12 06:36:12;;;;;;;18.63;11.73;;;;;;;1.90;64.46;101810.28;5070660;28;20056;-63
2021/12/12 06:38:42;;;;;;;16.70;10.85;;;;;;;1.91;64.27;101817.19;5070582;28;20041;-65
2021/12/12 06:41:11;;;;;;;16.73;10.70;;;;;;;1.91;64.19;101822.38;5070438;28;20051;-65
2021/12/12 06:43:37;;;;;;;16.00;10.32;;;;;;;1.90;64.18;101833.59;5070659;28;20523;-65
2021/12/12 06:46:05;;;;;;;16.77;11.15;;;;;;;1.93;64.11;101837.91;5069840;28;20489;-65
2021/12/12 06:48:33;;;;;;;17.52;10.82;;;;;;;1.93;64.33;101845.66;5070685;28;20075;-64
2021/12/12 06:51:02;;;;;;;17.50;11.13;;;;;;;1.91;64.19;101843.09;5070602;28;20417;-65
2021/12/12 06:53:31;;;;;;;17.92;10.77;;;;;;;1.92;64.17;101852.59;5070532;28;20067;-69
2021/12/12 06:55:59;;;;;;;19.10;11.02;;;;;;;1.92;64.28;101851.72;5070273;28;20048;-65
2021/12/12 06:58:28;;;;;;;18.90;11.45;;;;;;;1.91;64.08;101855.19;5070320;28;20045;-65
2021/12/12 07:01:04;;;;;;;16.20;10.63;;;;;;;1.88;64.19;101856.03;5070368;28;20855;-65
2021/12/12 07:03:32;;;;;;;21.63;10.80;;;;;;;1.90;64.20;101856.88;5081437;28;20101;-65
2021/12/12 07:06:00;;;;;;;21.33;11.25;;;;;;;1.95;64.17;101860.31;5090411;28;20051;-65
2021/12/12 07:08:27;;;;;;;17.52;10.77;;;;;;;2.02;63.95;101856.00;5090395;28;20047;-65
2021/12/12 07:10:53;;;;;;;19.95;11.10;;;;;;;2.08;63.63;101857.72;5090012;28;20121;-64
2021/12/12 07:13:20;;;;;;;19.48;10.57;;;;;;;2.14;63.65;101860.28;5090256;28;20081;-65
2021/12/12 07:15:51;;;;;;;18.08;10.55;;;;;;;2.24;63.50;101861.13;5090075;28;20048;-65
2021/12/12 07:18:21;;;;;;;18.38;10.90;;;;;;;2.45;62.69;101867.91;5087109;28;20044;-65
2021/12/12 07:20:51;;;;;;;18.73;11.05;;;;;;;2.60;62.38;101867.88;5069674;28;20075;-65
2021/12/12 07:23:19;;;;;;;16.52;10.60;;;;;;;2.72;62.25;101877.28;5069614;28;20052;-64
2021/12/12 07:25:46;;;;;;;15.27;10.20;;;;;;;2.82;61.88;101874.63;5069848;28;20048;-65
2021/12/12 07:28:14;;;;;;;17.50;10.98;;;;;;;2.93;61.80;101880.63;5069808;28;20079;-65
2021/12/12 07:30:42;;;;;;;18.05;11.55;;;;;;;2.82;61.92;101900.56;5069606;28;20044;-65
2021/12/12 07:33:10;;;;;;;15.82;11.45;;;;;;;2.72;62.28;101902.38;5069702;28;20049;-65
2021/12/12 07:35:42;;;;;;;18.67;11.15;;;;;;;2.82;61.83;101901.44;5068987;28;20055;-64
2021/12/12 07:38:13;;;;;;;17.83;11.25;;;;;;;2.89;61.76;101902.25;5069465;28;20048;-64
2021/12/12 07:40:42;;;;;;;17.23;10.77;;;;;;;2.90;61.62;101901.38;5081550;28;20040;-64
2021/12/12 07:43:10;;;;;;;17.77;11.32;;;;;;;2.92;61.52;101912.59;5089538;28;20052;-64
2021/12/12 07:45:38;;;;;;;24.85;12.50;;;;;;;2.87;62.13;101911.75;5089706;28;20044;-63
2021/12/12 07:48:11;;;;;;;25.67;13.43;;;;;;;2.92;61.46;101913.47;5089365;28;20488;-64
2021/12/12 07:50:39;;;;;;;21.08;12.98;;;;;;;2.94;61.56;101921.25;5088293;28;20496;-64
2021/12/12 07:53:07;;;;;;;25.02;13.77;;;;;;;2.99;61.41;101923.81;5088920;28;20498;-65
2021/12/12 07:55:34;;;;;;;27.05;14.93;;;;;;;3.00;61.26;101928.13;5089185;28;20040;-61
2021/12/12 07:58:08;;;;;;;34.72;15.30;;;;;;;3.02;61.37;101931.56;5088916;28;20070;-63
2021/12/12 08:00:35;;;;;;;54.05;26.60;;;;;;;3.07;61.25;101922.91;5089101;28;20051;-62
2021/12/12 08:03:03;;;;;;;35.08;17.15;;;;;;;3.13;61.19;101921.13;5089055;28;20048;-64
2021/12/12 08:05:32;;;;;;;31.30;15.85;;;;;;;3.19;61.00;101919.34;5087897;28;20146;-62
2021/12/12 08:08:03;;;;;;;47.03;25.70;;;;;;;3.29;61.02;101921.88;5068785;28;20102;-61
2021/12/12 08:10:31;;;;;;;52.67;28.48;;;;;;;3.49;60.56;101924.31;5068960;28;20049;-61
2021/12/12 08:12:57;;;;;;;84.40;42.25;;;;;;;3.81;60.21;101923.19;5068858;28;20040;-61
2021/12/12 08:15:28;;;;;;;49.80;27.13;;;;;;;4.25;59.64;101927.06;5074480;28;20048;-64
2021/12/12 08:17:57;;;;;;;41.13;20.65;;;;;;;4.34;59.14;101933.88;5086379;28;20054;-62
2021/12/12 08:20:26;;;;;;;32.55;18.25;;;;;;;4.66;58.67;101938.72;5087629;28;20044;-62
2021/12/12 08:22:53;;;;;;;28.85;15.98;;;;;;;4.99;58.00;101944.34;5072064;28;20052;-62
2021/12/12 08:25:20;;;;;;;25.92;15.00;;;;;;;5.35;57.40;101941.22;5068478;28;20098;-61
2021/12/12 08:27:48;;;;;;;28.17;16.25;;;;;;;5.65;56.46;101939.88;5087971;28;20052;-62
2021/12/12 08:30:18;;;;;;;28.33;15.60;;;;;;;5.99;55.83;101931.53;5088216;28;20053;-64
2021/12/12 08:32:49;;;;;;;24.20;15.35;;;;;;;6.29;55.37;101936.19;5088768;28;20048;-62
2021/12/12 08:35:20;;;;;;;27.10;16.83;;;;;;;6.46;55.07;101935.84;5088953;28;20044;-62
2021/12/12 08:37:47;;;;;;;28.77;17.77;;;;;;;6.63;54.91;101941.56;5088917;28;20048;-61
2021/12/12 08:40:20;;;;;;;28.75;16.38;;;;;;;6.86;54.56;101943.69;5087515;28;20453;-61
2021/12/12 08:42:49;;;;;;;25.45;17.00;;;;;;;7.08;54.26;101950.19;5088535;28;20463;-60
2021/12/12 08:45:20;;;;;;;27.20;16.90;;;;;;;7.30;53.84;101946.19;5088591;28;20492;-61
2021/12/12 08:47:49;;;;;;;22.25;14.85;;;;;;;7.48;53.54;101954.50;5088890;28;20196;-60
2021/12/12 08:50:22;;;;;;;30.25;17.45;;;;;;;7.56;53.39;101947.31;5088719;28;20048;-60
2021/12/12 08:52:49;;;;;;;77.00;37.75;;;;;;;7.65;53.45;101952.28;5088582;28;20052;-60
2021/12/12 09:09:50;;;;;;;27.13;17.40;;;;;;;8.61;50.80;101962.03;5066267;28;20405;-62
2021/12/12 09:12:24;;;;;;;28.30;18.58;;;;;;;8.82;50.91;101960.53;5046345;28;20053;-65
2021/12/12 09:15:01;;;;;;;25.38;16.73;;;;;;;9.00;50.90;101961.72;5045978;28;20057;-65
2021/12/12 09:17:32;;;;;;;26.70;17.10;;;;;;;9.21;50.71;101962.00;5046033;28;20444;-65
2021/12/12 09:20:16;;;;;;;24.70;16.77;;;;;;;9.39;50.70;101963.16;5046117;28;20053;-65
2021/12/12 09:23:00;;;;;;;29.55;19.27;;;;;;;9.55;50.51;101966.13;5046211;28;20067;-66
2021/12/12 09:25:38;;;;;;;25.77;17.23;;;;;;;9.71;50.47;101961.25;5045893;28;20099;-66
2021/12/12 09:28:44;;;;;;;24.73;16.85;;;;;;;9.87;50.24;101965.06;5045546;28;20049;-65
2021/12/12 09:31:19;;;;;;;20.67;15.18;;;;;;;10.04;50.10;101963.63;5022863;28;20128;-64
2021/12/12 09:33:46;;;;;;;24.58;15.27;;;;;;;10.21;49.91;101968.28;5042618;28;20050;-64
2021/12/12 09:36:24;;;;;;;21.13;15.32;;;;;;;10.38;49.47;101967.72;5045871;28;20049;-67
2021/12/12 09:39:08;;;;;;;21.45;13.95;;;;;;;10.56;49.05;101967.06;5045655;28;20045;-64
2021/12/12 09:41:58;;;;;;;24.98;15.57;;;;;;;10.74;48.65;101972.50;5045922;28;20049;-64
2021/12/12 09:44:51;;;;;;;21.70;14.98;;;;;;;10.82;48.53;101966.97;5061578;28;20064;-64
2021/12/12 09:47:56;;;;;;;20.05;13.82;;;;;;;10.96;48.13;101959.44;5065344;28;20056;-63
2021/12/12 09:53:23;;;;;;;22.20;13.88;;;;;;;11.27;47.35;101963.47;5065637;28;20554;-63
2021/12/12 09:55:53;;;;;;;;;;;;;;;11.54;47.07;101953.63;5065971;28;20063;-67
2021/12/12 09:58:23;;;;;;;18.88;12.35;;;;;;;11.54;47.38;101964.16;5058131;28;20388;-66
2021/12/12 10:01:04;;;;;;;19.95;13.02;;;;;;;11.62;47.07;101960.31;5045803;28;20056;-66
2021/12/12 10:04:08;;;;;;;17.08;11.85;;;;;;;11.81;46.78;101955.16;5045499;28;20457;-64
2021/12/12 10:06:38;;;;;;;17.98;12.15;;;;;;;11.83;46.85;101958.59;5061960;28;20041;-62
2021/12/12 10:09:07;;;;;;;16.63;11.30;;;;;;;11.93;46.65;101952.00;5064535;28;20045;-63
2021/12/12 10:11:54;;;;;;;19.80;13.85;;;;;;;12.04;46.51;101951.59;5065271;28;20389;-64
2021/12/12 10:15:04;;;;;;;19.02;13.77;;;;;;;11.97;46.88;101950.13;5063895;28;20057;-61
2021/12/12 10:17:46;;;;;;;21.05;14.75;;;;;;;11.86;47.36;101956.69;5053597;28;20500;-66
2021/12/12 10:20:36;;;;;;;20.42;13.25;;;;;;;11.74;47.35;101952.81;5056067;28;20045;-64
2021/12/12 10:30:10;;;;;;;20.30;13.30;;;;;;;12.21;46.76;101956.09;5031567;28;20529;-64
2021/12/12 10:32:46;;;;;;;24.15;14.40;;;;;;;12.24;46.66;101962.09;5034989;28;20040;-64
2021/12/12 10:35:28;;;;;;;23.73;13.98;;;;;;;12.19;46.82;101965.81;5051014;28;20045;-71
2021/12/12 10:37:54;;;;;;;44.00;20.55;;;;;;;12.28;46.59;101967.19;5051208;28;20052;-59
2021/12/12 10:40:31;;;;;;;48.58;22.55;;;;;;;12.16;46.78;101953.66;5051207;28;20049;-60
2021/12/12 10:43:03;;;;;;;25.15;14.75;;;;;;;12.02;46.90;101945.53;5051199;28;20044;-58
2021/12/12 10:45:40;;;;;;;30.35;17.17;;;;;;;12.11;46.89;101950.38;5033905;28;20103;-59
2021/12/12 10:48:17;;;;;;;27.75;16.67;;;;;;;11.95;47.01;101957.19;5031137;28;20045;-63
2021/12/12 10:51:10;;;;;;;26.17;16.95;;;;;;;11.80;47.15;101954.31;5031182;28;20482;-58
2021/12/12 10:53:46;;;;;;;22.10;15.13;;;;;;;11.63;47.68;101965.53;5031139;28;20115;-62
2021/12/12 10:56:30;;;;;;;19.52;14.93;;;;;;;11.22;48.42;101947.91;5043884;28;20073;-60
2021/12/12 10:59:03;;;;;;;21.00;14.77;;;;;;;11.04;48.85;101949.47;5049548;28;20555;-66
2021/12/12 11:01:36;;;;;;;19.50;14.40;;;;;;;10.81;49.50;101949.53;5044433;28;20095;-67
2021/12/12 11:04:19;;;;;;;19.67;14.63;;;;;;;10.41;50.45;101950.09;5050113;28;20135;-66
2021/12/12 11:07:03;;;;;;;19.48;14.30;;;;;;;10.23;50.77;101948.97;5047960;28;20045;-64
2021/12/12 11:09:30;;;;;;;18.65;14.38;;;;;;;9.90;51.47;101948.38;5050752;28;20057;-63
2021/12/12 11:12:06;;;;;;;19.33;13.43;;;;;;;9.55;52.30;101946.03;5050477;28;20095;-64
2021/12/12 11:15:24;;;;;;;30.60;20.70;;;;;;;9.17;53.08;101940.28;5050390;28;20041;-63
2021/12/12 11:17:50;;;;;;;48.38;33.63;;;;;;;9.02;53.70;101943.38;5020859;28;20041;-60
2021/12/12 11:20:25;;;;;;;58.35;38.38;;;;;;;8.87;54.00;101949.91;5036646;28;20102;-61
2021/12/12 11:22:57;;;;;;;73.45;43.78;;;;;;;8.75;54.25;101945.91;5042923;28;20041;-62
2021/12/12 11:26:25;;;;;;;411.50;255.65;;;;;;;8.72;54.58;101940.75;5045938;28;20435;-71
2021/12/12 11:28:56;;;;;;;90.57;60.65;;;;;;;8.69;54.68;101948.72;5024062;28;20068;-62
2021/12/12 11:31:37;;;;;;;32.28;24.33;;;;;;;8.65;54.88;101942.72;5040410;28;20045;-60
2021/12/12 11:34:06;;;;;;;39.80;30.80;;;;;;;8.66;54.83;101944.44;5040278;28;20049;-61
2021/12/12 11:36:44;;;;;;;22.73;16.10;;;;;;;8.70;55.00;101943.44;5048033;28;20053;-62
2021/12/12 11:39:20;;;;;;;23.02;19.05;;;;;;;8.70;55.43;101947.78;5045131;28;20041;-64
2021/12/12 11:42:00;;;;;;;21.30;16.05;;;;;;;8.67;55.58;101946.13;5042357;28;20045;-65
2021/12/12 11:44:47;;;;;;;25.40;16.58;;;;;;;8.68;55.74;101947.00;5036733;28;20512;-64
2021/12/12 11:47:42;;;;;;;51.22;30.15;;;;;;;8.71;55.63;101953.00;5041066;28;20045;-63
2021/12/12 11:50:21;;;;;;;21.08;15.38;;;;;;;8.69;55.91;101957.41;5039981;28;20110;-63
2021/12/12 11:53:29;;;;;;;20.75;15.80;;;;;;;8.71;56.03;101955.63;5035597;28;20048;-64
2021/12/12 11:56:07;;;;;;;24.48;16.58;;;;;;;8.76;56.07;101952.84;5036613;28;20468;-63
2021/12/12 11:58:44;;;;;;;26.35;18.20;;;;;;;8.77;56.16;101944.97;5047756;28;20159;-62
2021/12/12 12:01:47;;;;;;;19.55;13.85;;;;;;;8.79;56.36;101950.16;5042250;28;20043;-62
2021/12/12 12:04:32;;;;;;;20.80;14.13;;;;;;;8.82;56.38;101952.66;5027237;28;20080;-59
2021/12/12 12:07:29;;;;;;;20.02;13.50;;;;;;;8.87;56.51;101950.78;5041441;28;20103;-59
2021/12/12 12:10:05;;;;;;;17.60;13.88;;;;;;;8.89;56.63;101948.09;5035014;28;20079;-58
2021/12/12 12:13:10;;;;;;;22.77;15.65;;;;;;;8.91;57.02;101941.94;5049045;28;20588;-58
2021/12/12 12:15:49;;;;;;;24.73;16.05;;;;;;;8.99;57.01;101941.72;5044790;28;20194;-59
2021/12/12 12:18:34;;;;;;;22.42;14.60;;;;;;;9.01;57.14;101942.50;5043966;28;20064;-58
2021/12/12 12:21:27;;;;;;;43.83;21.40;;;;;;;9.04;57.33;101938.91;5044584;28;20668;-58
2021/12/12 12:24:26;;;;;;;28.83;16.58;;;;;;;9.03;57.49;101918.88;5037969;28;20045;-59
2021/12/12 12:27:03;;;;;;;29.02;16.65;;;;;;;9.06;57.62;101917.03;5034557;28;20048;-58
2021/12/12 12:29:33;;;;;;;17.90;11.52;;;;;;;9.09;57.76;101919.56;5048482;28;20084;-58